Time;durP1;ratioP1;P1;durP2;ratioP2;P2;SDS_P1;SDS_P2;PMS_P1;PMS_P2;Temp;Humidity;BMP_temperature;BMP_pressure;BME280_temperature;BME280_humidity;BME280_pressure;Samples;Min_cycle;Max_cycle;Signal;HPM_P1;HPM_P2
2022/04/10 00:01:31;;;;;;;2.47;1.80;;;;;;;2.83;100.00;100179.00;7396289;19;20018;-52
2022/04/10 00:03:58;;;;;;;1.33;1.30;;;;;;;2.83;100.00;100179.78;7398358;19;20035;-52
2022/04/10 00:06:24;;;;;;;1.75;1.65;;;;;;;2.84;100.00;100170.34;7395835;19;20015;-52
2022/04/10 00:08:51;;;;;;;1.95;1.88;;;;;;;2.88;100.00;100171.06;7392152;19;20391;-52
2022/04/10 00:11:17;;;;;;;10.30;2.30;;;;;;;2.86;100.00;100169.91;7396514;19;20400;-52
2022/04/10 00:13:43;;;;;;;3.90;1.73;;;;;;;2.81;100.00;100162.94;7396446;19;20022;-52
2022/04/10 00:16:10;;;;;;;1.45;1.45;;;;;;;2.68;100.00;100172.16;7395413;19;20015;-52
2022/04/10 00:18:37;;;;;;;1.50;1.50;;;;;;;2.64;100.00;100161.19;7396018;19;20014;-52
2022/04/10 00:21:05;;;;;;;1.13;1.13;;;;;;;2.61;100.00;100161.25;7393864;19;20074;-52
2022/04/10 00:23:31;;;;;;;1.63;1.20;;;;;;;2.55;100.00;100171.94;7396557;19;20018;-52
2022/04/10 00:25:58;;;;;;;1.23;1.23;;;;;;;2.53;100.00;100166.09;7394461;19;20011;-52
2022/04/10 00:28:24;;;;;;;1.40;1.40;;;;;;;2.55;100.00;100163.69;7393680;19;20031;-52
2022/04/10 00:30:50;;;;;;;1.23;1.23;;;;;;;2.55;100.00;100158.19;7396503;19;20066;-52
2022/04/10 00:33:16;;;;;;;1.30;1.30;;;;;;;2.62;100.00;100166.31;7394841;19;20667;-52
2022/04/10 00:35:42;;;;;;;1.30;1.30;;;;;;;2.62;100.00;100160.84;7396123;19;20021;-52
2022/04/10 00:38:09;;;;;;;1.98;1.85;;;;;;;2.60;100.00;100160.47;7393191;19;20031;-52
2022/04/10 00:40:35;;;;;;;2.97;1.88;;;;;;;2.52;100.00;100153.53;7395448;19;20010;-52
2022/04/10 00:43:01;;;;;;;1.35;1.35;;;;;;;2.49;100.00;100148.09;7395622;19;20015;-52
2022/04/10 00:45:27;;;;;;;4.68;1.73;;;;;;;2.42;100.00;100146.22;7392864;19;20017;-52
2022/04/10 00:47:54;;;;;;;1.02;1.02;;;;;;;2.51;100.00;100151.19;7392468;19;20014;-52
2022/04/10 00:50:21;;;;;;;3.20;1.70;;;;;;;2.48;100.00;100152.78;7395523;19;20018;-52
2022/04/10 00:52:49;;;;;;;1.45;1.45;;;;;;;2.48;100.00;100147.28;7393901;19;20739;-52
2022/04/10 00:55:17;;;;;;;1.83;1.50;;;;;;;2.48;100.00;100141.81;7394329;19;20052;-52
2022/04/10 00:57:45;;;;;;;0.95;0.95;;;;;;;2.45;100.00;100152.84;7394592;19;20010;-52
2022/04/10 01:00:13;;;;;;;1.42;1.40;;;;;;;2.41;100.00;100152.09;7393904;19;20026;-52
2022/04/10 01:02:40;;;;;;;2.65;1.30;;;;;;;2.37;100.00;100146.66;7393028;19;20015;-52
2022/04/10 01:05:07;;;;;;;1.30;1.30;;;;;;;2.34;100.00;100150.22;7394628;19;20470;-52
2022/04/10 01:07:34;;;;;;;15.48;2.10;;;;;;;2.28;100.00;100155.41;7393116;19;20047;-52
2022/04/10 01:10:01;;;;;;;2.20;1.65;;;;;;;2.31;100.00;100151.06;7395650;19;20467;-52
2022/04/10 01:12:30;;;;;;;1.77;1.60;;;;;;;2.32;100.00;100149.84;7392829;19;20018;-52
2022/04/10 01:14:59;;;;;;;1.17;1.17;;;;;;;2.28;100.00;100151.88;7392769;19;20013;-52
2022/04/10 01:17:46;;;;;;;0.60;0.60;;;;;;;2.25;100.00;100158.22;7393361;19;20014;-53
2022/04/10 01:20:14;;;;;;;1.38;1.23;;;;;;;2.22;100.00;100156.28;7392425;19;20031;-52
2022/04/10 01:22:44;;;;;;;3.28;2.47;;;;;;;2.21;100.00;100157.47;7392226;19;20019;-52
2022/04/10 01:25:12;;;;;;;1.63;1.52;;;;;;;2.22;100.00;100156.28;7392320;19;20881;-52
2022/04/10 01:27:42;;;;;;;1.92;1.92;;;;;;;2.22;100.00;100153.53;7392282;19;20580;-52
2022/04/10 01:30:11;;;;;;;1.38;1.38;;;;;;;2.19;100.00;100154.34;7391200;19;20007;-52
2022/04/10 01:32:37;;;;;;;1.60;1.55;;;;;;;2.17;100.00;100148.47;7394779;19;20019;-52
2022/04/10 01:35:06;;;;;;;1.83;1.73;;;;;;;2.13;100.00;100147.75;7396640;19;20010;-52
2022/04/10 01:37:35;;;;;;;1.70;1.67;;;;;;;2.10;100.00;100148.59;7388424;19;20018;-52
2022/04/10 01:40:01;;;;;;;1.00;1.00;;;;;;;2.10;100.00;100143.09;7390900;19;20014;-53
2022/04/10 01:42:28;;;;;;;1.52;1.52;;;;;;;2.06;100.00;100145.09;7391907;19;20022;-87
2022/04/10 01:44:55;;;;;;;1.13;1.13;;;;;;;2.00;100.00;100138.50;7389565;19;20469;-85
2022/04/10 01:47:22;;;;;;;0.85;0.85;;;;;;;1.99;100.00;100136.94;7386249;19;20418;-83
2022/04/10 01:49:48;;;;;;;1.38;1.38;;;;;;;1.97;100.00;100139.34;7389663;19;20014;-83
2022/04/10 01:52:14;;;;;;;2.85;2.33;;;;;;;1.92;100.00;100142.53;7387834;19;20023;-84
2022/04/10 01:54:40;;;;;;;1.13;1.13;;;;;;;1.87;100.00;100145.72;7391494;19;20014;-84
2022/04/10 01:57:08;;;;;;;1.42;1.42;;;;;;;1.89;100.00;100143.31;7388277;19;20086;-84
2022/04/10 01:59:34;;;;;;;4.63;1.88;;;;;;;1.88;100.00;100141.78;7387219;19;20022;-84
2022/04/10 02:02:01;;;;;;;1.73;1.65;;;;;;;1.88;100.00;100142.56;7388532;19;20007;-85
2022/04/10 02:04:27;;;;;;;1.15;1.15;;;;;;;1.88;100.00;100144.53;7391596;19;20417;-88
2022/04/10 02:06:54;;;;;;;1.52;1.52;;;;;;;1.87;100.00;100145.72;7387069;19;20516;-85
2022/04/10 02:09:22;;;;;;;1.40;1.38;;;;;;;1.85;100.00;100148.09;7387347;19;20018;-85
2022/04/10 02:11:50;;;;;;;0.90;0.90;;;;;;;1.85;100.00;100143.38;7386687;19;20011;-86
2022/04/10 02:14:17;;;;;;;1.35;1.35;;;;;;;1.84;100.00;100135.56;7387510;19;20026;-86
2022/04/10 02:16:44;;;;;;;1.25;1.25;;;;;;;1.83;100.00;100139.47;7387237;19;20345;-83
2022/04/10 02:19:10;;;;;;;2.20;1.90;;;;;;;1.81;100.00;100144.59;7386867;19;20022;-83
2022/04/10 02:21:37;;;;;;;1.50;1.40;;;;;;;1.73;100.00;100145.88;7385789;19;20454;-85
2022/04/10 02:24:04;;;;;;;2.60;1.50;;;;;;;1.71;100.00;100142.75;7390221;19;20098;-84
2022/04/10 02:26:30;;;;;;;13.10;3.35;;;;;;;1.71;100.00;100134.53;7388258;19;20023;-84
2022/04/10 02:28:56;;;;;;;4.40;2.80;;;;;;;1.69;100.00;100140.41;7384092;19;20014;-84
2022/04/10 02:31:22;;;;;;;1.80;1.80;;;;;;;1.66;100.00;100135.75;7386970;19;20018;-85
2022/04/10 02:33:48;;;;;;;2.22;2.00;;;;;;;1.57;100.00;100131.91;7385465;19;20022;-85
2022/04/10 02:36:19;;;;;;;4.22;2.35;;;;;;;1.56;100.00;100130.38;7384929;19;20492;-84
2022/04/10 02:38:45;;;;;;;1.13;1.13;;;;;;;1.53;100.00;100135.50;7388306;19;20090;-84
2022/04/10 02:41:11;;;;;;;2.03;1.92;;;;;;;1.52;100.00;100139.41;7386252;19;20086;-86
2022/04/10 02:43:39;;;;;;;0.90;0.90;;;;;;;1.46;100.00;100132.81;7387154;19;20014;-85
2022/04/10 02:46:06;;;;;;;1.45;1.42;;;;;;;1.45;100.00;100136.72;7384655;19;20010;-85
2022/04/10 02:48:38;;;;;;;2.88;2.53;;;;;;;1.41;100.00;100138.75;7384074;19;20029;-84
2022/04/10 02:51:08;;;;;;;1.77;1.65;;;;;;;1.35;100.00;100137.63;7384915;19;20015;-85
2022/04/10 02:53:34;;;;;;;1.67;1.60;;;;;;;1.29;100.00;100144.75;7385872;19;20019;-85
2022/04/10 02:56:00;;;;;;;3.08;2.88;;;;;;;1.26;100.00;100145.53;7387991;19;20134;-85
2022/04/10 02:58:27;;;;;;;2.88;2.72;;;;;;;1.24;100.00;100145.16;7386157;19;20019;-85
2022/04/10 03:00:53;;;;;;;2.28;2.15;;;;;;;1.26;100.00;100147.50;7386853;19;20018;-84
2022/04/10 03:03:19;;;;;;;1.58;1.58;;;;;;;1.24;100.00;100147.91;7385121;19;20011;-84
2022/04/10 03:05:45;;;;;;;3.72;2.03;;;;;;;1.23;100.00;100146.38;7386159;19;20457;-85
2022/04/10 03:08:13;;;;;;;1.33;1.33;;;;;;;1.25;100.00;100145.97;7384603;19;20615;-84
2022/04/10 03:10:39;;;;;;;1.55;1.55;;;;;;;1.24;100.00;100139.69;7385473;19;20034;-85
2022/04/10 03:13:07;;;;;;;1.20;1.20;;;;;;;1.25;100.00;100152.22;7389856;19;20025;-84
2022/04/10 03:15:33;;;;;;;1.20;1.20;;;;;;;1.21;100.00;100158.94;7384829;19;20043;-84
2022/04/10 03:18:01;;;;;;;3.33;2.05;;;;;;;1.18;100.00;100155.03;7383843;19;20022;-85
2022/04/10 03:20:28;;;;;;;1.48;1.48;;;;;;;1.17;100.00;100158.94;7384586;19;20019;-83
2022/04/10 03:22:54;;;;;;;2.45;2.35;;;;;;;1.18;100.00;100154.25;7389116;19;20019;-83
2022/04/10 03:25:20;;;;;;;1.58;1.58;;;;;;;1.21;100.00;100151.44;7384639;19;20018;-83
2022/04/10 03:27:47;;;;;;;1.00;1.00;;;;;;;1.20;100.00;100158.13;7384021;19;20481;-84
2022/04/10 03:30:13;;;;;;;2.00;1.90;;;;;;;1.19;100.00;100153.81;7389168;19;20493;-84
2022/04/10 03:32:41;;;;;;;1.70;1.70;;;;;;;1.13;100.00;100139.00;7395963;19;20406;-84
2022/04/10 03:35:07;;;;;;;1.17;1.17;;;;;;;1.09;100.00;100146.47;7391781;19;20031;-84
2022/04/10 03:37:34;;;;;;;2.30;2.15;;;;;;;1.06;100.00;100155.50;7393577;19;20018;-84
2022/04/10 03:40:03;;;;;;;2.40;2.20;;;;;;;1.02;100.00;100145.78;7392446;19;20014;-84
2022/04/10 03:42:43;;;;;;;1.80;1.80;;;;;;;1.01;100.00;100155.94;7391610;19;20067;-57
2022/04/10 03:45:11;;;;;;;1.70;1.70;;;;;;;0.99;100.00;100158.31;7389642;19;20078;-57
2022/04/10 03:47:38;;;;;;;1.50;1.38;;;;;;;0.97;100.00;100149.72;7387616;19;20018;-57
2022/04/10 03:50:05;;;;;;;1.63;1.63;;;;;;;0.99;100.00;100141.88;7393809;19;20454;-57
2022/04/10 03:52:32;;;;;;;1.35;1.35;;;;;;;1.01;100.00;100142.25;7396955;19;20408;-57
2022/04/10 03:54:58;;;;;;;10.98;1.95;;;;;;;1.02;100.00;100135.56;7394242;19;20377;-58
2022/04/10 03:57:24;;;;;;;2.65;2.08;;;;;;;0.99;100.00;100141.88;7392770;19;20010;-57
2022/04/10 03:59:50;;;;;;;1.45;1.45;;;;;;;0.96;100.00;100131.69;7395652;19;20035;-57
2022/04/10 04:02:17;;;;;;;1.45;1.45;;;;;;;0.96;100.00;100131.69;7394253;19;20018;-57
2022/04/10 04:04:44;;;;;;;1.52;1.52;;;;;;;0.93;100.00;100129.00;7393166;19;20508;-57
2022/04/10 04:07:12;;;;;;;1.33;1.23;;;;;;;0.92;100.00;100125.47;7392418;19;20040;-57
2022/04/10 04:09:39;;;;;;;1.90;1.90;;;;;;;0.93;100.00;100127.03;7393609;19;20038;-57
2022/04/10 04:12:05;;;;;;;1.35;1.35;;;;;;;0.90;100.00;100125.09;7395469;19;20010;-57
2022/04/10 04:14:32;;;;;;;2.25;2.10;;;;;;;0.94;100.00;100125.84;7393287;19;20359;-57
2022/04/10 04:16:59;;;;;;;1.33;1.33;;;;;;;1.01;100.00;100128.53;7395225;19;20018;-57
2022/04/10 04:19:25;;;;;;;3.50;2.05;;;;;;;1.06;100.00;100121.84;7391545;19;20463;-57
2022/04/10 04:21:51;;;;;;;2.05;1.95;;;;;;;1.08;100.00;100127.69;7394843;19;20440;-57
2022/04/10 04:24:17;;;;;;;1.45;1.45;;;;;;;1.11;100.00;100124.91;7393018;19;20530;-57
2022/04/10 04:26:43;;;;;;;2.40;1.50;;;;;;;1.14;100.00;100132.34;7392462;19;20035;-57
2022/04/10 04:29:10;;;;;;;3.08;2.88;;;;;;;1.19;100.00;100134.63;7391973;19;20015;-57
2022/04/10 04:31:37;;;;;;;1.92;1.92;;;;;;;1.24;100.00;100125.19;7394756;19;20048;-57
2022/04/10 04:34:04;;;;;;;1.45;1.45;;;;;;;1.28;100.00;100125.94;7392514;19;20014;-57
2022/04/10 04:36:31;;;;;;;1.42;1.42;;;;;;;1.27;100.00;100127.91;7391863;19;20373;-58
2022/04/10 04:38:57;;;;;;;2.05;2.05;;;;;;;1.33;100.00;100120.00;7391791;19;20475;-58
2022/04/10 04:41:24;;;;;;;2.28;2.17;;;;;;;1.40;100.00;100128.19;7391756;19;20010;-57
2022/04/10 04:43:50;;;;;;;2.30;2.20;;;;;;;1.39;100.00;100127.38;7391588;19;20010;-57
2022/04/10 04:46:16;;;;;;;2.20;2.20;;;;;;;1.44;100.00;100126.97;7393697;19;20014;-57
2022/04/10 04:48:42;;;;;;;1.63;1.58;;;;;;;1.52;100.00;100131.19;7390149;19;20360;-57
2022/04/10 04:51:14;;;;;;;1.67;1.60;;;;;;;1.54;100.00;100137.03;7392725;19;20103;-57
2022/04/10 04:53:41;;;;;;;1.83;1.73;;;;;;;1.64;100.00;100140.09;7391576;19;20017;-57
2022/04/10 04:56:07;;;;;;;2.80;1.95;;;;;;;1.71;100.00;100132.53;7390628;19;20021;-57
2022/04/10 04:58:37;;;;;;;6.38;3.20;;;;;;;1.77;100.00;100135.63;7392154;19;20014;-57
2022/04/10 05:01:04;;;;;;;1.10;1.10;;;;;;;1.81;100.00;100139.13;7391523;19;20027;-57
2022/04/10 05:03:30;;;;;;;3.13;2.90;;;;;;;1.84;100.00;100135.56;7393851;19;20585;-57
2022/04/10 05:05:57;;;;;;;2.35;2.20;;;;;;;1.86;100.00;100144.16;7391099;19;20014;-58
2022/04/10 05:08:27;;;;;;;2.78;2.45;;;;;;;1.89;100.00;100140.59;7389322;19;20081;-58
2022/04/10 05:10:55;;;;;;;1.67;1.65;;;;;;;1.93;100.00;100144.84;7391181;19;20022;-58
2022/04/10 05:13:22;;;;;;;1.65;1.65;;;;;;;1.98;100.00;100141.66;7390738;19;20015;-57
2022/04/10 05:15:49;;;;;;;1.50;1.50;;;;;;;2.01;100.00;100148.31;7389724;19;20527;-57
2022/04/10 05:18:19;;;;;;;1.67;1.63;;;;;;;2.06;100.00;100147.84;7391188;19;20014;-57
2022/04/10 05:20:48;;;;;;;3.75;2.90;;;;;;;2.10;100.00;100154.09;7390244;19;20046;-57
2022/04/10 05:23:18;;;;;;;2.22;2.13;;;;;;;2.06;100.00;100153.31;7391642;19;20010;-57
2022/04/10 05:25:50;;;;;;;1.75;1.67;;;;;;;2.08;100.00;100150.97;7390576;19;20093;-57
2022/04/10 05:28:16;;;;;;;1.83;1.73;;;;;;;2.07;100.00;100149.41;7389961;19;20010;-57
2022/04/10 05:30:44;;;;;;;9.73;2.95;;;;;;;2.03;100.00;100154.16;7395138;19;20430;-57
2022/04/10 05:33:15;;;;;;;1.02;1.00;;;;;;;2.00;100.00;100154.97;7388748;19;20018;-57
2022/04/10 05:35:41;;;;;;;5.55;2.97;;;;;;;2.05;100.00;100149.81;7392975;19;20509;-58
2022/04/10 05:38:08;;;;;;;2.75;2.00;;;;;;;2.12;100.00;100157.19;7391198;19;20015;-57
2022/04/10 05:40:36;;;;;;;29.50;3.97;;;;;;;2.21;100.00;100152.75;7390644;19;20007;-57
2022/04/10 05:43:02;;;;;;;14.30;2.63;;;;;;;2.27;100.00;100151.09;7394844;19;20474;-57
2022/04/10 05:45:29;;;;;;;1.48;1.40;;;;;;;2.27;100.00;100147.59;7388909;19;20028;-57
2022/04/10 05:47:57;;;;;;;3.38;3.00;;;;;;;2.30;100.00;100146.75;7388906;19;20014;-57
2022/04/10 05:50:29;;;;;;;1.33;1.33;;;;;;;2.30;100.00;100146.75;7386701;19;20015;-57
2022/04/10 06:24:08;;;;;;;2.05;1.95;;;;;;;1.65;100.00;100155.34;7429143;19;20377;-82
2022/04/10 06:29:25;;;;;;;5.25;2.70;;;;;;;2.32;100.00;100155.34;7416720;19;20034;-54
2022/04/10 06:31:57;;;;;;;3.53;1.63;;;;;;;2.38;100.00;100159.22;7430134;19;20132;-54
2022/04/10 06:34:27;;;;;;;1.58;1.55;;;;;;;2.47;100.00;100164.22;7428588;19;20010;-54
2022/04/10 06:36:54;;;;;;;1.98;1.88;;;;;;;2.49;100.00;100162.59;7427531;19;20021;-54
2022/04/10 06:39:21;;;;;;;2.08;2.08;;;;;;;2.53;100.00;100166.09;7424638;19;20118;-54
2022/04/10 06:41:50;;;;;;;2.65;1.35;;;;;;;2.59;100.00;100166.38;7425842;19;20409;-54
2022/04/10 06:44:40;;;;;;;10.15;1.85;;;;;;;2.63;100.00;100165.16;7421992;19;20027;-54
2022/04/10 06:47:16;;;;;;;2.28;1.98;;;;;;;2.65;100.00;100157.25;7422917;19;20587;-52
2022/04/10 06:49:43;;;;;;;1.58;1.58;;;;;;;2.64;100.00;100161.19;7426466;19;20010;-52
2022/04/10 06:52:09;;;;;;;2.30;2.20;;;;;;;2.62;100.00;100163.56;7423160;19;20021;-52
2022/04/10 06:54:39;;;;;;;1.67;1.58;;;;;;;2.70;100.00;100167.81;7422735;19;20014;-52
2022/04/10 06:57:06;;;;;;;1.98;1.88;;;;;;;2.80;100.00;100172.38;7423951;19;20045;-53
2022/04/10 06:59:33;;;;;;;15.07;2.45;;;;;;;2.84;100.00;100169.56;7424825;19;20020;-52
2022/04/10 07:02:03;;;;;;;1.58;1.58;;;;;;;2.90;100.00;100168.66;7423791;19;20014;-53
2022/04/10 07:04:29;;;;;;;2.83;2.13;;;;;;;2.95;100.00;100170.97;7420789;19;20010;-52
2022/04/10 07:06:57;;;;;;;2.30;2.20;;;;;;;2.99;100.00;100177.19;7422090;19;20128;-52
2022/04/10 07:09:23;;;;;;;1.48;1.48;;;;;;;3.14;100.00;100168.72;7425403;19;20014;-52
2022/04/10 07:11:50;;;;;;;8.57;2.45;;;;;;;3.28;100.00;100176.72;7422855;19;20018;-52
2022/04/10 07:14:39;;;;;;;2.20;2.10;;;;;;;3.37;100.00;100165.97;7421770;19;20118;-52
2022/04/10 07:17:05;;;;;;;4.55;2.38;;;;;;;3.46;100.00;100169.75;7421936;19;20086;-52
2022/04/10 07:19:32;;;;;;;2.15;2.13;;;;;;;3.49;100.00;100173.59;7423872;19;20018;-52
2022/04/10 07:24:45;;;;;;;2.08;1.65;;;;;;;3.50;100.00;100172.44;7420775;19;20010;-52
2022/04/10 07:27:12;;;;;;;1.88;1.85;;;;;;;3.53;100.00;100177.09;7421195;19;20475;-52
2022/04/10 07:29:50;;;;;;;0.80;0.80;;;;;;;3.59;100.00;100175.41;7424322;19;20007;-52
2022/04/10 07:32:18;;;;;;;1.83;1.73;;;;;;;3.70;100.00;100176.00;7421407;19;20066;-52
2022/04/10 07:34:51;;;;;;;2.58;1.80;;;;;;;3.77;100.00;100168.38;7398604;19;20017;-52
2022/04/10 07:37:40;;;;;;;3.03;1.67;;;;;;;3.90;100.00;100168.53;7392834;19;20493;-52
2022/04/10 07:40:07;;;;;;;2.40;2.05;;;;;;;3.99;100.00;100165.22;7395934;19;20096;-52
2022/04/10 07:42:39;;;;;;;2.72;2.08;;;;;;;4.08;100.00;100168.19;7390760;19;20354;-52
2022/04/10 07:45:08;;;;;;;1.42;1.42;;;;;;;4.18;100.00;100167.97;7392652;19;20014;-52
2022/04/10 07:47:50;;;;;;;2.47;2.38;;;;;;;4.36;100.00;100170.38;7392317;19;20018;-52
2022/04/10 07:50:17;;;;;;;2.03;1.92;;;;;;;4.41;100.00;100167.91;7396095;19;20014;-52
2022/04/10 07:52:44;;;;;;;5.10;2.85;;;;;;;4.54;100.00;100179.84;7391980;19;20014;-52
2022/04/10 07:55:21;;;;;;;4.40;1.60;;;;;;;4.61;100.00;100168.63;7392691;19;20074;-53
2022/04/10 07:57:48;;;;;;;4.45;1.92;;;;;;;4.68;100.00;100172.47;7392408;19;20015;-53
2022/04/10 08:00:17;;;;;;;1.77;1.65;;;;;;;4.68;100.00;100164.94;7394904;19;20014;-53
2022/04/10 08:02:53;;;;;;;1.50;1.50;;;;;;;4.76;100.00;100160.84;7394916;19;20014;-53
2022/04/10 08:05:26;;;;;;;1.80;1.42;;;;;;;4.95;100.00;100165.50;7391988;19;20011;-53
2022/04/10 08:08:02;;;;;;;2.05;1.65;;;;;;;5.04;100.00;100165.69;7394134;19;20021;-52
2022/04/10 08:10:29;;;;;;;4.78;2.30;;;;;;;5.16;100.00;100169.75;7398568;19;20014;-53
2022/04/10 08:12:55;;;;;;;7.60;3.72;;;;;;;5.25;100.00;100172.69;7393810;19;20018;-52
2022/04/10 08:15:21;;;;;;;8.13;3.03;;;;;;;5.39;100.00;100172.34;7393513;19;20021;-53
2022/04/10 08:17:48;;;;;;;14.05;4.50;;;;;;;5.53;100.00;100166.44;7392704;19;20011;-52
2022/04/10 08:20:14;;;;;;;3.65;2.53;;;;;;;5.65;100.00;100170.50;7396342;19;20014;-52
2022/04/10 08:22:40;;;;;;;5.18;3.15;;;;;;;5.72;100.00;100170.28;7394565;19;20357;-57
2022/04/10 08:25:12;;;;;;;2.72;1.85;;;;;;;5.87;100.00;100174.25;7398167;19;20014;-53
2022/04/10 08:27:40;;;;;;;1.63;1.52;;;;;;;5.99;100.00;100177.09;7395900;19;20018;-53
2022/04/10 08:30:10;;;;;;;14.85;3.25;;;;;;;6.04;100.00;100173.78;7397199;19;20022;-53
2022/04/10 08:32:37;;;;;;;2.08;1.48;;;;;;;6.19;100.00;100178.94;7395025;19;20022;-53
2022/04/10 08:35:05;;;;;;;0.60;0.60;;;;;;;6.34;100.00;100171.78;7393043;19;20014;-52
2022/04/10 08:37:31;;;;;;;2.85;1.38;;;;;;;6.68;100.00;100174.72;7391898;19;20011;-52
2022/04/10 08:39:57;;;;;;;0.80;0.80;;;;;;;7.01;100.00;100166.97;7396224;19;20017;-52
2022/04/10 08:42:23;;;;;;;1.75;1.58;;;;;;;7.16;100.00;100160.56;7391619;19;20353;-52
2022/04/10 08:44:50;;;;;;;9.75;1.10;;;;;;;7.30;100.00;100159.28;7391061;19;20466;-52
2022/04/10 08:47:21;;;;;;;1.10;1.10;;;;;;;7.59;100.00;100157.91;7391037;19;20028;-52
2022/04/10 08:49:48;;;;;;;1.10;0.75;;;;;;;7.89;100.00;100158.47;7395562;19;20359;-52
2022/04/10 08:52:17;;;;;;;0.85;0.80;;;;;;;8.08;100.00;100155.38;7391092;19;20071;-52
2022/04/10 08:54:47;;;;;;;0.65;0.65;;;;;;;8.36;100.00;100156.38;7391104;19;20038;-52
2022/04/10 08:57:14;;;;;;;0.73;0.55;;;;;;;8.56;100.00;100154.03;7393004;19;20011;-52
2022/04/10 08:59:41;;;;;;;0.70;0.70;;;;;;;8.75;100.00;100152.88;7395991;19;20010;-52
2022/04/10 09:02:10;;;;;;;1.65;0.70;;;;;;;8.92;100.00;100148.63;7394745;19;20439;-53
2022/04/10 09:04:37;;;;;;;0.65;0.65;;;;;;;9.21;100.00;100151.06;7392112;19;20031;-53
2022/04/10 09:07:07;;;;;;;0.32;0.32;;;;;;;9.51;100.00;100152.19;7392595;19;20011;-52
2022/04/10 09:09:51;;;;;;;0.60;0.60;;;;;;;9.75;100.00;100136.47;7395984;19;20381;-52
2022/04/10 09:12:18;;;;;;;0.25;0.25;;;;;;;10.00;100.00;100133.41;7392166;19;20031;-53
2022/04/10 09:14:44;;;;;;;0.90;0.90;;;;;;;10.14;100.00;100132.78;7391670;19;20467;-53
2022/04/10 09:17:16;;;;;;;0.50;0.50;;;;;;;10.30;100.00;100129.66;7392998;19;20010;-52
2022/04/10 09:19:49;;;;;;;2.70;1.13;;;;;;;10.42;100.00;100137.06;7395524;19;20021;-52
2022/04/10 09:22:29;;;;;;;0.40;0.40;;;;;;;10.51;100.00;100136.25;7391270;19;20053;-52
2022/04/10 09:25:16;;;;;;;0.50;0.50;;;;;;;10.64;100.00;100132.06;7390025;19;20010;-52
2022/04/10 09:27:45;;;;;;;3.22;0.73;;;;;;;10.80;100.00;100132.91;7390216;19;20433;-52
2022/04/10 09:30:13;;;;;;;0.50;0.50;;;;;;;11.02;100.00;100133.47;7391330;19;20078;-52
2022/04/10 09:32:47;;;;;;;0.70;0.70;;;;;;;11.21;100.00;100134.91;7390589;19;20014;-52
2022/04/10 09:35:15;;;;;;;0.68;0.50;;;;;;;11.41;100.00;100133.06;7388902;19;20010;-52
2022/04/10 09:37:48;;;;;;;0.80;0.75;;;;;;;11.57;100.00;100143.03;7393106;19;20010;-52
2022/04/10 09:40:34;;;;;;;2.03;1.20;;;;;;;11.69;100.00;100128.13;7390549;19;20015;-53
2022/04/10 09:43:10;;;;;;;0.65;0.63;;;;;;;11.80;100.00;100142.25;7390759;19;20021;-53
2022/04/10 09:45:44;;;;;;;0.82;0.82;;;;;;;11.80;100.00;100133.16;7391410;19;20018;-53
2022/04/10 09:48:17;;;;;;;0.50;0.50;;;;;;;11.82;100.00;100133.44;7393929;19;20017;-53
2022/04/10 09:50:44;;;;;;;1.30;0.82;;;;;;;11.87;100.00;100141.91;7389717;19;20459;-53
2022/04/10 09:53:11;;;;;;;3.55;1.10;;;;;;;11.88;100.00;100137.88;7390089;19;20019;-53
2022/04/10 09:55:39;;;;;;;1.08;0.65;;;;;;;11.90;100.00;100138.16;7390058;19;20006;-53
2022/04/10 09:58:09;;;;;;;0.60;0.60;;;;;;;12.01;100.00;100130.00;7392274;19;20031;-52
2022/04/10 10:00:40;;;;;;;2.63;0.70;;;;;;;12.10;100.00;100132.72;7390927;19;20023;-53
2022/04/10 10:03:07;;;;;;;;;;;;;;;12.13;100.00;100128.97;7390478;19;20035;-53
2022/04/10 10:05:33;;;;;;;3.53;0.90;;;;;;;12.15;100.00;100132.03;7389180;19;19914;-53
2022/04/10 10:08:00;;;;;;;2.95;1.17;;;;;;;12.23;100.00;100131.69;7391321;19;20354;-53
2022/04/10 10:10:32;;;;;;;4.38;1.20;;;;;;;12.25;100.00;100124.38;7387998;19;20086;-53
2022/04/10 10:13:07;;;;;;;0.50;0.50;;;;;;;12.29;100.00;100118.56;7389007;19;20363;-53
2022/04/10 10:15:36;;;;;;;3.78;0.63;;;;;;;12.45;100.00;100123.69;7388741;19;20462;-52
2022/04/10 10:18:05;;;;;;;1.23;1.13;;;;;;;12.67;100.00;100132.44;7391473;19;20018;-53
2022/04/10 10:20:33;;;;;;;1.02;0.90;;;;;;;12.77;100.00;100122.72;7387679;19;20021;-53
2022/04/10 10:23:04;;;;;;;2.35;0.75;;;;;;;12.84;100.00;100127.91;7387632;19;20015;-53
2022/04/10 10:25:36;;;;;;;1.83;0.70;;;;;;;12.81;100.00;100129.63;7390143;19;20011;-53
2022/04/10 10:28:08;;;;;;;3.13;1.05;;;;;;;12.80;100.00;100121.72;7392491;19;20014;-53
2022/04/10 10:30:34;;;;;;;1.05;1.05;;;;;;;12.90;100.00;100120.38;7390435;19;20011;-53
2022/04/10 10:33:34;;;;;;;5.55;1.02;;;;;;;13.17;100.00;100122.81;7390135;19;20006;-53
2022/04/10 10:36:01;;;;;;;0.47;0.47;;;;;;;13.42;99.14;100127.78;7387377;19;20015;-52
2022/04/10 10:38:31;;;;;;;9.52;0.70;;;;;;;13.49;98.11;100121.75;7392621;19;20010;-52
2022/04/10 10:41:15;;;;;;;4.60;0.85;;;;;;;13.57;96.67;100111.69;7388988;19;20380;-52
2022/04/10 10:43:42;;;;;;;0.95;0.40;;;;;;;13.80;95.50;100106.34;7387368;19;20014;-52
2022/04/10 10:46:21;;;;;;;0.75;0.65;;;;;;;14.03;95.73;100097.72;7388690;19;20015;-52
2022/04/10 10:48:50;;;;;;;1.58;0.50;;;;;;;14.07;92.70;100094.69;7394162;19;20028;-53
2022/04/10 10:51:18;;;;;;;0.60;0.60;;;;;;;14.07;93.05;100095.47;7389943;19;20014;-52
2022/04/10 10:53:45;;;;;;;1.85;0.80;;;;;;;14.10;89.86;100096.47;7389992;19;20010;-52
2022/04/10 10:56:22;;;;;;;0.35;0.30;;;;;;;14.01;89.75;100089.00;7391181;19;20021;-52
2022/04/10 10:58:49;;;;;;;1.30;0.50;;;;;;;14.12;93.62;100088.38;7392951;19;20030;-57
2022/04/10 11:01:19;;;;;;;0.45;0.45;;;;;;;14.10;89.20;100085.28;7388533;19;20052;-57
2022/04/10 11:03:59;;;;;;;2.00;0.70;;;;;;;13.93;89.30;100075.94;7386384;19;20014;-57
2022/04/10 11:06:29;;;;;;;1.15;0.77;;;;;;;13.74;88.97;100069.91;7389357;19;20007;-57
2022/04/10 11:08:55;;;;;;;1.83;0.70;;;;;;;13.88;90.75;100069.03;7395207;19;20401;-57
2022/04/10 11:11:35;;;;;;;14.35;1.08;;;;;;;14.03;87.63;100064.13;7396847;19;20438;-57
2022/04/10 11:14:01;;;;;;;1.88;0.63;;;;;;;14.03;86.31;100066.13;7397014;19;20021;-58
2022/04/10 11:16:28;;;;;;;0.57;0.57;;;;;;;14.17;89.39;100059.63;7396279;19;20014;-57
2022/04/10 11:18:56;;;;;;;1.10;0.90;;;;;;;14.30;84.38;100040.44;7400344;19;20018;-58
2022/04/10 11:21:23;;;;;;;0.47;0.32;;;;;;;14.37;85.91;100054.00;7395320;19;20029;-58
2022/04/10 11:23:50;;;;;;;0.73;0.73;;;;;;;14.36;84.74;100047.63;7392260;19;20369;-57
2022/04/10 11:26:19;;;;;;;0.90;0.80;;;;;;;14.43;83.90;100047.19;7395582;19;20010;-58
2022/04/10 11:28:56;;;;;;;2.90;0.98;;;;;;;14.46;82.34;100051.03;7400572;19;20011;-57
2022/04/10 11:31:32;;;;;;;0.47;0.47;;;;;;;14.48;82.94;100053.31;7395258;19;20031;-58
2022/04/10 11:34:18;;;;;;;1.17;1.08;;;;;;;14.52;84.16;100049.03;7394422;19;20043;-57
2022/04/10 11:36:47;;;;;;;2.88;0.73;;;;;;;14.55;82.28;100042.44;7395867;19;20106;-57
2022/04/10 11:39:13;;;;;;;1.33;1.20;;;;;;;14.53;81.04;100049.81;7397902;19;20034;-57
2022/04/10 11:41:43;;;;;;;0.60;0.60;;;;;;;14.26;80.18;100039.88;7394907;19;20369;-57
2022/04/10 11:44:09;;;;;;;1.13;0.50;;;;;;;14.10;81.65;100034.88;7395288;19;20015;-57
2022/04/10 11:46:36;;;;;;;1.60;1.20;;;;;;;14.15;82.18;100040.53;7394850;19;20645;-57
2022/04/10 11:49:03;;;;;;;1.33;0.75;;;;;;;14.06;81.42;100034.31;7395878;19;20463;-57
2022/04/10 11:51:29;;;;;;;4.15;0.65;;;;;;;14.23;83.56;100033.22;7395537;19;20011;-57
2022/04/10 11:53:58;;;;;;;1.30;0.60;;;;;;;14.44;81.84;100022.72;7394816;19;20034;-57
2022/04/10 11:56:24;;;;;;;11.30;1.27;;;;;;;14.60;83.00;100018.50;7394914;19;20470;-57
2022/04/10 11:58:51;;;;;;;1.20;0.75;;;;;;;14.76;80.48;100021.41;7398753;19;20011;-57
2022/04/10 12:01:20;;;;;;;0.57;0.57;;;;;;;14.85;78.75;100020.47;7394600;19;20050;-57
2022/04/10 12:03:49;;;;;;;3.10;0.88;;;;;;;14.89;76.83;100024.56;7391673;19;20026;-57
2022/04/10 12:06:20;;;;;;;1.83;1.30;;;;;;;14.84;73.75;100025.28;7394089;19;20082;-56
2022/04/10 12:08:48;;;;;;;0.98;0.90;;;;;;;14.87;77.13;100023.53;7397273;19;20010;-57